Tiempo atmosférico en la estación meteorológica de Jaraicejo, Cáceres (510 m.)



Fecha
DESCASC
Temp. máxima en grados centígrados (hora)
DESCASC
Temp. mínima en grados centígrados (hora)
DESCASC
Temp. media en grados centígrados
DESCASC
Racha de viento máxima en m/sg (hora)
DESCASC
Velocidad máxima media en intervalos de 10 minutos(hora)
DESCASC
Precipitaciones diarias en mm
DESCASC
Precipitaciones de 00:00 a 06:00 en mm
DESCASC
Precipitaciones de 06:00 a 12:00 en mm
DESCASC
Precipitaciones de 12:00 a 18:00 en mm
DESCASC
Precipitaciones de 18:00 a 24:00 en mm
DESCASC
16-04-2019 21.5 (17:20) 7.5 (03:00) 14.5 9.17 (18:10) 5 (22:10) 0 0 0 0 0
15-04-2019 21.5 (15:20) 11.1 (23:59) 16.3 10.83 (16:30) 6.67 (14:10) 0 0 0 0 0
14-04-2019 22.7 (17:30) 11.7 (00:00) 17.2 6.67 (14:20) 3.89 (18:50) 0 0 0 0 0
13-04-2019 22.7 (18:40) 8.4 (00:00) 15.6 7.5 (20:20) 3.61 (20:20) 0 0 0 0 0
12-04-2019 20.1 (18:20) 5.5 (00:00) 12.8 6.67 (01:10) 5 (01:10) 0 0 0 0 0
11-04-2019 18.2 (17:30) 3.9 (00:00) 11.1 8.06 (17:40) 3.89 (00:30) 0 0 0 0 0
10-04-2019 16.3 (19:00) 5 (00:00) 10.6 10.83 (12:30) 5.83 (13:20) 0 0 0 0 0
09-04-2019 15.1 (18:10) 5.8 (00:00) 10.5 13.89 (11:00) 7.5 (10:30) 2.2 0.4 0.4 1.4 0
08-04-2019 16.1 (18:10) 7.6 (00:00) 11.9 11.67 (19:30) 5.83 (19:20) 5.2 4.2 1 0 0
07-04-2019 11.3 (14:20) 5.5 (00:00) 8.4 9.44 (15:30) 6.11 (15:20) 4.4 1 0 0.8 2.6
06-04-2019 9.9 (14:50) 3.9 (00:00) 6.9 13.33 (13:20) 7.22 (15:20) 2.6 0 1 1.6 0
05-04-2019 11.8 (16:50) 4.7 (00:00) 8.3 13.61 (18:40) 6.39 (04:00) 4.2 2 1.2 0.4 0.6
04-04-2019 15.9 (17:10) 1.9 (00:00) 8.9 12.22 (00:50) 7.22 (00:50) 0.8 0 0 0 0.8
03-04-2019 16.5 (16:20) 5.2 (00:00) 10.8 13.33 (18:00) 6.67 (18:00) 0 0 0 0 0
02-04-2019 20.5 (16:30) 7.6 (00:00) 14 8.33 (19:10) 4.17 (14:00) 0 0 0 0 0
01-04-2019 17.1 (17:30) 8.3 (00:00) 12.7 7.22 (10:50) 4.72 (06:20) 0 0 0 0 0
31-03-2019 19.1 (16:10) 9.6 (00:00) 14.4 12.78 (12:00) 8.89 (12:00) 0 0 0 0 0
30-03-2019 19.7 (16:30) 7.2 (00:00) 13.5 12.5 (10:10) 8.89 (10:00) 0 0 0 0 0
29-03-2019 18.9 (16:30) 7.8 (00:00) 13.3 9.72 (13:50) 6.67 (11:30) 0 0 0 0 0
28-03-2019 20 (15:10) 7.9 (00:00) 14 8.61 (16:10) 6.11 (09:00) 0 0 0 0 0
27-03-2019 19 (16:10) 6.6 (00:00) 12.8 13.61 (05:50) 11.39 (05:50) 0 0 0 0 0
26-03-2019 21 (17:00) 8.5 (00:00) 14.8 19.44 (09:20) 15 (08:20) 0 0 0 0 0
25-03-2019 22.1 (16:30) 10 (00:00) 16.1 10 (15:50) 7.5 (08:20) 0 0 0 0 0
24-03-2019 20.6 (17:00) 8.9 (00:00) 14.8 12.78 (11:00) 10 (11:10) 0 0 0 0 0
23-03-2019 20.4 (17:00) 8.4 (00:00) 14.4 12.78 (15:10) 8.33 (15:10) 0 0 0 0 0
22-03-2019 17.8 (15:50) 5.3 (00:00) 11.5 10.83 (13:50) 7.22 (13:50) 0 0 0 0 0
21-03-2019 17 (15:30) 5.5 (00:00) 11.3 10.83 (06:10) 8.89 (06:10) 0 0 0 0 0
20-03-2019 14.9 (16:00) 5.1 (00:00) 10 14.44 (14:30) 9.17 (12:50) 0 0 0 0 0
19-03-2019 16.9 (16:30) 5.6 (00:00) 11.2 10.56 (14:00) 6.94 (08:10) 0 0 0 0 0

Gráficas

Temp. máximas Temp. mínimas Temp. medias Precipitaciones Rachas de viento máximas Velocidades máximas media en intervalos de 10 minutos

Datos horarios

Fecha y hora oficial Temperatura (ºC) Velocidad del viento (km/h) Dirección del viento Racha (km/h) Dirección de racha Precipitación (mm) Presión (hPa) Tendencia (hPa) Humedad (%)
2019-04-17 23:00:00 10.2 18 Sur 30 Sur 0.4 -- -- 91
2019-04-17 22:00:00 10.8 18 Sur 26 Sur 0.4 -- -- 84
2019-04-17 21:00:00 11.2 14 Sur 40 Sudoeste 0.2 -- -- 84
2019-04-17 20:00:00 12.5 24 Sudoeste 41 Sudoeste 0 -- -- 75
2019-04-17 19:00:00 14.1 19 Sudoeste 40 Sudoeste 0 -- -- 75
2019-04-17 18:00:00 17.8 20 Sudeste 35 Sudeste 0 -- -- 53
2019-04-17 17:00:00 18.7 18 Sur 31 Sur 0 -- -- 44
2019-04-17 16:00:00 19.6 14 Sur 29 Sur 0 -- -- 42
2019-04-17 15:00:00 18.3 13 Sur 28 Sur 0 -- -- 44
2019-04-17 14:00:00 17.4 12 Sur 25 Sur 0 -- -- 43
2019-04-17 13:00:00 17.5 17 Sur 27 Sur 0 -- -- 42
2019-04-17 12:00:00 17.2 13 Sudeste 27 Este 0 -- -- 44
2019-04-17 11:00:00 16.8 15 Sudeste 26 Este 0 -- -- 45
2019-04-17 10:00:00 14.4 10 Este 21 Este 0 -- -- 52
2019-04-17 09:00:00 13.1 10 Este 18 Sudeste 0 -- -- 54
2019-04-17 08:00:00 12.2 8 Este 19 Sudeste 0 -- -- 60
2019-04-17 07:00:00 12.7 12 Sudeste 21 Sudeste 0 -- -- 60
2019-04-17 06:00:00 13.6 12 Sudeste 26 Este 0 -- -- 61
2019-04-17 05:00:00 14.7 14 Este 32 Sudeste 0 -- -- 54
2019-04-17 04:00:00 14.4 13 Sudeste 22 Sudeste 0 -- -- 53
2019-04-17 03:00:00 14.5 15 Sudeste 25 Sudeste 0 -- -- 51
2019-04-17 02:00:00 15.5 16 Sudeste 30 Sudeste 0 -- -- 47
2019-04-17 01:00:00 15.6 12 Sudeste 21 Sudeste 0 -- -- 44
2019-04-17 00:00:00 16.4 13 Sudeste 22 Sudeste 0 -- -- 41
2019-04-16 23:00:00 17.9 15 Sudeste 26 Sudeste 0 -- -- 40
2019-04-16 22:00:00 16.3 18 Este 24 Este 0 -- -- 45
2019-04-16 21:00:00 17.3 13 Este 17 Este 0 -- -- 43
2019-04-16 20:00:00 19.8 10 Sudeste 22 Sur 0 -- -- 34
2019-04-16 19:00:00 21.3 12 Sudeste 33 Sudeste 0 -- -- 33
2019-04-16 18:00:00 20.8 12 Sudeste 26 Sudeste 0 -- -- 34
2019-04-16 17:00:00 21.3 13 Sudeste 27 Sudeste 0 -- -- 31
2019-04-16 16:00:00 20.9 14 Sur 26 Sudeste 0 -- -- 30
2019-04-16 15:00:00 19.9 15 Este 26 Este 0 -- -- 30
2019-04-16 14:00:00 19 9 Sur 27 Sudeste 0 -- -- 40
2019-04-16 13:00:00 18.3 8 Sur 18 Sudeste 0 -- -- 45
2019-04-16 12:00:00 16.5 9 Sudeste 21 Este 0 -- -- 54
2019-04-16 11:00:00 14.6 6 Sudeste 13 Sudeste 0 -- -- 60
2019-04-16 10:00:00 12.7 8 Sudeste 13 Sudeste 0 -- -- 68
2019-04-16 09:00:00 10.6 8 Este 14 Este 0 -- -- 75
2019-04-16 08:00:00 8 10 Este 14 Este 0 -- -- 83
2019-04-16 07:00:00 8.2 8 Sudeste 12 Sudeste 0 -- -- 83
2019-04-16 06:00:00 8 8 Este 12 Sudeste 0 -- -- 85
2019-04-16 05:00:00 7.8 7 Sudeste 17 Este 0 -- -- 86
2019-04-16 04:00:00 8 9 Sudeste 12 Sudeste 0 -- -- 85
2019-04-16 03:00:00 7.5 5 Este 7 Este 0 -- -- 84
2019-04-16 02:00:00 9.3 3 Sur 7 Sudoeste 0 -- -- 77
2019-04-16 01:00:00 10.2 0 Calma 15 Oeste 0 -- -- 72
2019-04-16 00:00:00 11.1 6 Oeste 13 Oeste 0 -- -- 71
2019-04-15 23:00:00 11.9 5 Oeste 18 Oeste 0 -- -- 70
2019-04-15 22:00:00 13 7 Oeste 19 Oeste 0 -- -- 68
2019-04-15 21:00:00 14.3 5 Oeste 19 Sudoeste 0 -- -- 69
2019-04-15 20:00:00 16.3 9 Oeste 25 Sudoeste 0 -- -- 62
2019-04-15 19:00:00 15.6 8 Oeste 26 Oeste 0 -- -- 70
2019-04-15 18:00:00 13.6 14 Oeste 36 Sudoeste 0 -- -- 71
2019-04-15 17:00:00 16 19 Oeste 39 Oeste 0 -- -- 62
2019-04-15 16:00:00 20.8 15 Oeste 38 Sudoeste 0 -- -- 39
2019-04-15 15:00:00 20.7 22 Sudoeste 37 Sudoeste 0 -- -- 43
2019-04-15 14:00:00 20.2 24 Sudoeste 37 Sudoeste 0 -- -- 49
2019-04-15 13:00:00 19.5 22 Sudoeste 35 Sudoeste 0 -- -- 60
2019-04-15 12:00:00 18.1 14 Sudoeste 23 Sur 0 -- -- 69
2019-04-15 11:00:00 17 11 Sudoeste 17 Sudoeste 0 -- -- 73
2019-04-15 10:00:00 16.6 6 Sur 13 Sudeste 0 -- -- 73
2019-04-15 09:00:00 15.6 9 Sudeste 19 Sudeste 0 -- -- 73
2019-04-15 08:00:00 15.7 10 Este 23 Este 0 -- -- 70
2019-04-15 07:00:00 16.1 13 Este 23 Este 0 -- -- 68
2019-04-15 06:00:00 15.8 10 Este 19 Este 0 -- -- 70
2019-04-15 05:00:00 15.8 11 Este 18 Este 0 -- -- 71
2019-04-15 04:00:00 16 10 Este 17 Este 0 -- -- 70
2019-04-15 03:00:00 16 8 Este 14 Este 0 -- -- 71
2019-04-15 02:00:00 16.1 8 Este 14 Este 0 -- -- 72
2019-04-15 01:00:00 16 8 Este 14 Sudeste 0 -- -- 73
2019-04-15 00:00:00 16.6 8 Este 12 Sudeste 0 -- -- 71
2019-04-14 23:00:00 17 6 Sudeste 9 Sur 0 -- -- 69
2019-04-14 22:00:00 18.1 6 Sur 12 Sudoeste 0 -- -- 63
2019-04-14 21:00:00 19 5 Sudoeste 11 Oeste 0 -- -- 60
2019-04-14 20:00:00 20.6 6 Sudoeste 17 Oeste 0 -- -- 54
2019-04-14 19:00:00 21.9 13 Sudoeste 22 Sudoeste 0 -- -- 50
2019-04-14 18:00:00 21.6 7 Oeste 21 Sudoeste 0 -- -- 52
2019-04-14 17:00:00 21.8 12 Sudoeste 23 Sudoeste 0 -- -- 50
2019-04-14 16:00:00 21.1 9 Sudoeste 21 Sudoeste 0 -- -- 52
2019-04-14 15:00:00 21.2 12 Sudoeste 24 Sudoeste 0 -- -- 54
2019-04-14 14:00:00 19.9 9 Sudoeste 23 Sudoeste 0 -- -- 60
2019-04-14 13:00:00 18.5 8 Sudoeste 19 Sudoeste 0 -- -- 66
2019-04-14 12:00:00 16.4 9 Sur 19 Sudoeste 0 -- -- 76
2019-04-14 11:00:00 13.9 10 Sudoeste 17 Sudoeste 0 -- -- 85
2019-04-14 10:00:00 12.9 8 Sur 13 Sur 0 -- -- 91
2019-04-14 09:00:00 12.3 8 Sur 11 Sudoeste 0 -- -- 96
2019-04-14 08:00:00 12.2 6 Sur 11 Sudoeste 0 -- -- 96
2019-04-14 07:00:00 12.1 7 Sudoeste 14 Sudoeste 0 -- -- 97
2019-04-14 06:00:00 12 8 Sudoeste 18 Sudoeste 0 -- -- 96
2019-04-14 05:00:00 12 8 Sudoeste 14 Sudoeste 0 -- -- 94
2019-04-14 04:00:00 11.9 5 Sur 11 Sur 0 -- -- 91
2019-04-14 03:00:00 11.8 4 Sur 10 Sudoeste 0 -- -- 84
2019-04-14 02:00:00 12.5 5 Sudoeste 13 Sudoeste 0 -- -- 80
2019-04-14 01:00:00 13.3 4 Sudoeste 12 Oeste 0 -- -- 70
2019-04-14 00:00:00 14 4 Sudoeste 12 Oeste 0 -- -- 61
2019-04-13 23:00:00 14.6 5 Oeste 14 Oeste 0 -- -- 56
2019-04-13 22:00:00 15.5 6 Oeste 14 Oeste 0 -- -- 46
2019-04-13 21:00:00 16.6 6 Oeste 27 Oeste 0 -- -- 42
2019-04-13 20:00:00 20.7 8 Oeste 19 Oeste 0 -- -- 36
2019-04-13 19:00:00 22 9 Sudoeste 24 Sudoeste 0 -- -- 30
2019-04-13 18:00:00 22.5 7 Oeste 20 Sudoeste 0 -- -- 32
2019-04-13 17:00:00 22.1 9 Sudoeste 23 Sudoeste 0 -- -- 29
2019-04-13 16:00:00 21.3 9 Oeste 25 Sur 0 -- -- 34
2019-04-13 15:00:00 20.9 6 Oeste 21 Sudoeste 0 -- -- 36
2019-04-13 14:00:00 20.3 9 Sudoeste 22 Sudoeste 0 -- -- 36
2019-04-13 13:00:00 19.2 8 Sudoeste 18 Sudoeste 0 -- -- 35
2019-04-13 12:00:00 17.1 5 Sur 12 Sur 0 -- -- 44
2019-04-13 11:00:00 15.2 5 Sudeste 10 Sudeste 0 -- -- 54
2019-04-13 10:00:00 12.7 6 Sudeste 10 Este 0 -- -- 62
2019-04-13 09:00:00 9.5 8 Sudeste 12 Sudeste 0 -- -- 67
2019-04-13 08:00:00 8.8 4 Este 10 Sudeste 0 -- -- 68
2019-04-13 07:00:00 8.9 5 Sudeste 10 Sudeste 0 -- -- 64
2019-04-13 06:00:00 9 8 Sudeste 15 Este 0 -- -- 62
2019-04-13 05:00:00 9.3 10 Sudeste 15 Sudeste 0 -- -- 58
2019-04-13 04:00:00 8.6 3 Este 8 Sudeste 0 -- -- 59
2019-04-13 03:00:00 9.6 5 Este 12 Este 0 -- -- 56
2019-04-13 02:00:00 10.7 8 Sudeste 11 Sudeste 0 -- -- 52
2019-04-13 01:00:00 11.4 8 Sudeste 12 Sudeste 0 -- -- 50
2019-04-13 00:00:00 12.4 3 Sudeste 7 Sudoeste 0 -- -- 46
2019-04-12 23:00:00 13.2 4 Oeste 9 Sudoeste 0 -- -- 44
2019-04-12 22:00:00 14.3 4 Oeste 9 Noroeste 0 -- -- 42
2019-04-12 21:00:00 15.8 5 Oeste 14 Oeste 0 -- -- 37
2019-04-12 20:00:00 18.2 9 Oeste 19 Oeste 0 -- -- 32
2019-04-12 19:00:00 19.7 9 Sudoeste 21 Sudoeste 0 -- -- 29
2019-04-12 18:00:00 19.4 7 Noroeste 22 Oeste 0 -- -- 28
2019-04-12 17:00:00 19.7 6 Oeste 21 Oeste 0 -- -- 30
2019-04-12 16:00:00 19 7 Noroeste 21 Sudoeste 0 -- -- 30
2019-04-12 15:00:00 17.8 6 Norte 18 Noroeste 0 -- -- 30
2019-04-12 14:00:00 17.2 5 Sudoeste 22 Oeste 0 -- -- 35
2019-04-12 13:00:00 16.7 7 Norte 19 Nordeste 0 -- -- 36
2019-04-12 12:00:00 15.7 4 Sur 13 Este 0 -- -- 39
2019-04-12 11:00:00 14.3 6 Nordeste 13 Nordeste 0 -- -- 43
2019-04-12 10:00:00 12.1 3 Nordeste 6 Norte 0 -- -- 49
2019-04-12 09:00:00 9 4 Nordeste 5 Este 0 -- -- 59
2019-04-12 08:00:00 5.5 4 Nordeste 11 Norte 0 -- -- 68
2019-04-12 07:00:00 5.8 8 Norte 11 Norte 0 -- -- 67
2019-04-12 06:00:00 6.7 8 Norte 10 Norte 0 -- -- 61
2019-04-12 05:00:00 7.9 6 Nordeste 17 Este 0 -- -- 54
2019-04-12 04:00:00 9.5 7 Este 17 Nordeste 0 -- -- 50
2019-04-12 03:00:00 8.6 15 Nordeste 21 Nordeste 0 -- -- 54
2019-04-12 02:00:00 9.5 13 Este 24 Nordeste 0 -- -- 50
2019-04-12 01:00:00 9.3 18 Nordeste 23 Nordeste 0 -- -- 52
2019-04-12 00:00:00 8.2 12 Nordeste 18 Nordeste 0 -- -- 62
2019-04-11 23:00:00 10 9 Norte 21 Noroeste 0 -- -- 53
2019-04-11 22:00:00 12.2 10 Noroeste 16 Noroeste 0 -- -- 43
2019-04-11 21:00:00 13.7 8 Noroeste 19 Oeste 0 -- -- 41
2019-04-11 20:00:00 16.4 11 Noroeste 22 Noroeste 0 -- -- 35
2019-04-11 19:00:00 17.3 9 Noroeste 25 Noroeste 0 -- -- 32
2019-04-11 18:00:00 17.9 7 Oeste 29 Oeste 0 -- -- 33
2019-04-11 17:00:00 17.9 11 Oeste 23 Oeste 0 -- -- 33
2019-04-11 16:00:00 17 9 Noroeste 20 Oeste 0 -- -- 33
2019-04-11 15:00:00 17.3 10 Oeste 24 Noroeste 0 -- -- 41
2019-04-11 14:00:00 15.7 8 Oeste 21 Noroeste 0 -- -- 44
2019-04-11 13:00:00 14.7 9 Oeste 19 Sudoeste 0 -- -- 48
2019-04-11 12:00:00 13 6 Sudoeste 14 Sur 0 -- -- 58
2019-04-11 11:00:00 10.7 5 Sudoeste 9 Sudoeste 0 -- -- 71
2019-04-11 10:00:00 8.4 3 Sudoeste 6 Oeste 0 -- -- 81
2019-04-11 09:00:00 6.6 5 Sudeste 12 Sudeste 0 -- -- 83
2019-04-11 08:00:00 4.7 8 Este 11 Este 0 -- -- 89
2019-04-11 07:00:00 4.7 9 Este 14 Este 0 -- -- 89
2019-04-11 06:00:00 4.3 4 Sudeste 9 Nordeste 0 -- -- 85
2019-04-11 05:00:00 5.8 3 Noroeste 6 Noroeste 0 -- -- 83
2019-04-11 04:00:00 5.9 0 Calma 8 Noroeste 0 -- -- 82
2019-04-11 03:00:00 6 3 Norte 12 Norte 0 -- -- 81
2019-04-11 02:00:00 6.2 6 Nordeste 20 Noroeste 0 -- -- 80
2019-04-11 01:00:00 7.4 11 Noroeste 22 Noroeste 0 -- -- 76
2019-04-11 00:00:00 7.6 12 Norte 26 Noroeste 0 -- -- 76
2019-04-10 23:00:00 9.3 14 Noroeste 28 Norte 0 -- -- 66
2019-04-10 22:00:00 10.1 15 Noroeste 29 Norte 0 -- -- 63
2019-04-10 21:00:00 11.5 13 Norte 31 Norte 0 -- -- 58
2019-04-10 20:00:00 13.8 13 Noroeste 32 Oeste 0 -- -- 46
2019-04-10 19:00:00 16.3 17 Noroeste 36 Noroeste 0 -- -- 41
2019-04-10 18:00:00 15.1 15 Noroeste 39 Oeste 0 -- -- 47
2019-04-10 17:00:00 15.6 15 Oeste 33 Noroeste 0 -- -- 46
2019-04-10 16:00:00 14.9 14 Oeste 39 Noroeste 0 -- -- 49
2019-04-10 15:00:00 13.9 21 Noroeste 36 Oeste 0 -- -- 54
2019-04-10 14:00:00 13 15 Noroeste 36 Oeste 0 -- -- 57
2019-04-10 13:00:00 12 13 Oeste 39 Noroeste 0 -- -- 59
2019-04-10 12:00:00 11.5 17 Noroeste 33 Noroeste 0 -- -- 64
2019-04-10 11:00:00 10.4 14 Noroeste 30 Oeste 0 -- -- 69
2019-04-10 10:00:00 8.1 4 Oeste 14 Sudoeste 0 -- -- 91
2019-04-10 09:00:00 6.6 3 Oeste 8 Noroeste 0 -- -- 98
2019-04-10 08:00:00 5.2 4 Oeste 12 Oeste 0 -- -- 97
2019-04-10 07:00:00 5.1 4 Sudoeste 13 Sudoeste 0 -- -- 95
2019-04-10 06:00:00 5.3 3 Oeste 9 Oeste 0 -- -- 94
2019-04-10 05:00:00 5.9 4 Oeste 10 Sudoeste 0 -- -- 95
2019-04-10 04:00:00 6.1 4 Sudoeste 18 Oeste 0 -- -- 94
2019-04-10 03:00:00 5.7 6 Sudoeste 16 Oeste 0 -- -- 91
2019-04-10 02:00:00 6.7 5 Oeste 19 Oeste 0 -- -- 84
2019-04-10 01:00:00 7.6 9 Oeste 26 Oeste 0 -- -- 82
2019-04-10 00:00:00 9 12 Oeste 28 Oeste 0 -- -- 74
2019-04-09 23:00:00 9.3 12 Oeste 27 Noroeste 0 -- -- 73
2019-04-09 22:00:00 9.7 9 Oeste 26 Oeste 0 -- -- 71
2019-04-09 21:00:00 10.6 9 Oeste 37 Oeste 0 -- -- 69
2019-04-09 20:00:00 12.7 14 Oeste 39 Sudoeste 0 -- -- 58
2019-04-09 19:00:00 14 19 Sudoeste 36 Sudoeste 0 -- -- 56
2019-04-09 18:00:00 14.9 18 Oeste 37 Oeste 0 -- -- 55
2019-04-09 17:00:00 14.9 16 Oeste 33 Sudoeste 0 -- -- 55
2019-04-09 16:00:00 11.9 13 Oeste 36 Oeste 0.2 -- -- 75
2019-04-09 15:00:00 13 15 Oeste 36 Oeste 0.2 -- -- 70
2019-04-09 14:00:00 9.1 14 Oeste 32 Sudoeste 0.8 -- -- 86
2019-04-09 13:00:00 10.1 24 Sudoeste 44 Sudoeste 0.2 -- -- 85
2019-04-09 12:00:00 9.1 14 Sudoeste 31 Sudoeste 0 -- -- 90
2019-04-09 11:00:00 8.2 22 Sudoeste 50 Sudoeste 0 -- -- 92
2019-04-09 10:00:00 7.2 21 Sudoeste 32 Sudoeste 0.4 -- -- 99
2019-04-09 09:00:00 6.7 16 Sudoeste 26 Sur 0 -- -- 99
2019-04-09 08:00:00 6.5 17 Sudoeste 27 Sudoeste 0 -- -- 99
2019-04-09 07:00:00 6.4 17 Sudoeste 27 Sudoeste 0 -- -- 99
2019-04-09 06:00:00 6.3 12 Sudoeste 21 Sudoeste 0 -- -- 98
2019-04-09 05:00:00 6.2 10 Sudoeste 19 Sudoeste 0.4 -- -- 96
2019-04-09 04:00:00 5.8 10 Sudoeste 16 Sudoeste 0 -- -- 94
2019-04-09 03:00:00 6.3 10 Sudoeste 18 Sudoeste 0 -- -- 91
2019-04-09 02:00:00 7 10 Sudoeste 19 Oeste 0 -- -- 87
2019-04-09 01:00:00 7 11 Sudoeste 21 Oeste 0 -- -- 86
2019-04-09 00:00:00 7.6 10 Sudoeste 19 Sudoeste 0 -- -- 85
2019-04-08 23:00:00 8.5 8 Sudoeste 20 Sudoeste 0 -- -- 81
2019-04-08 22:00:00 9.6 10 Sudoeste 28 Oeste 0 -- -- 73
2019-04-08 21:00:00 10.3 10 Sudoeste 23 Sudoeste 0 -- -- 68
2019-04-08 20:00:00 11.1 10 Sudoeste 42 Sudoeste 0 -- -- 76
2019-04-08 19:00:00 13.7 15 Sudoeste 42 Sudoeste 0 -- -- 57
2019-04-08 18:00:00 15.8 13 Oeste 28 Oeste 0 -- -- 42
2019-04-08 17:00:00 15.4 13 Sudoeste 33 Sudoeste 0 -- -- 47
2019-04-08 16:00:00 15.3 12 Oeste 28 Sudoeste 0 -- -- 54
2019-04-08 15:00:00 15.3 13 Oeste 28 Sudoeste 0 -- -- 53
2019-04-08 14:00:00 14 10 Oeste 30 Oeste 0 -- -- 57
2019-04-08 13:00:00 12.5 18 Sudoeste 32 Sudoeste 0 -- -- 62
2019-04-08 12:00:00 11.3 11 Sudoeste 26 Sudoeste 0 -- -- 83
2019-04-08 11:00:00 10 15 Sudoeste 28 Sudoeste 0 -- -- 99
2019-04-08 10:00:00 9.4 14 Sudoeste 26 Oeste 0 -- -- 100
2019-04-08 09:00:00 9.2 13 Sudoeste 21 Sudoeste 0 -- -- 100
2019-04-08 08:00:00 9.2 14 Sudoeste 23 Sudoeste 0 -- -- 100
2019-04-08 07:00:00 9.5 12 Sudoeste 35 Sur 1 -- -- 100
2019-04-08 06:00:00 9.3 18 Sur 30 Sur 1.8 -- -- 100
2019-04-08 05:00:00 9.5 17 Sur 27 Sudoeste 0.6 -- -- 100
2019-04-08 04:00:00 9.7 18 Sudoeste 28 Sudoeste 1 -- -- 100
2019-04-08 03:00:00 10 17 Sudoeste 28 Sudoeste 0.8 -- -- 100
2019-04-08 02:00:00 10.1 12 Sudoeste 20 Sur 0 -- -- 100
2019-04-08 01:00:00 10.1 11 Sudoeste 18 Sur 0 -- -- 100
2019-04-08 00:00:00 10.1 12 Sudoeste 18 Sudoeste 0 -- -- 99
2019-04-07 23:00:00 9.9 10 Sudoeste 19 Sudoeste 0.2 -- -- 99
2019-04-07 22:00:00 10 12 Sudoeste 24 Sur 1 -- -- 99
2019-04-07 21:00:00 9.8 12 Sudoeste 20 Sur 0.4 -- -- 99
2019-04-07 20:00:00 9.6 10 Sur 19 Sur 0.6 -- -- 98
2019-04-07 19:00:00 9.4 9 Sur 24 Sur 0.4 -- -- 98
2019-04-07 18:00:00 9.3 15 Sur 27 Sudoeste 0.8 -- -- 96
2019-04-07 17:00:00 10.4 14 Sur 27 Sudoeste 0 -- -- 82
2019-04-07 16:00:00 11 15 Sudoeste 34 Sudoeste 0 -- -- 77
2019-04-07 15:00:00 11.1 14 Sudoeste 32 Sudoeste 0 -- -- 73
2019-04-07 14:00:00 11.1 12 Sudoeste 27 Sudoeste 0 -- -- 72
2019-04-07 13:00:00 10.1 11 Sudoeste 23 Sudoeste 0 -- -- 75
2019-04-07 12:00:00 9.4 13 Sudoeste 24 Sudoeste 0 -- -- 82
2019-04-07 11:00:00 8.1 12 Sudoeste 24 Sudoeste 0 -- -- 90
2019-04-07 10:00:00 6.9 6 Oeste 18 Sudoeste 0 -- -- 99
2019-04-07 09:00:00 6.2 8 Sudoeste 17 Oeste 0 -- -- 99
2019-04-07 08:00:00 5.9 7 Oeste 17 Sudoeste 0 -- -- 98
2019-04-07 07:00:00 6 8 Sudoeste 24 Oeste 0 -- -- 98
2019-04-07 06:00:00 6 10 Sudoeste 23 Sudoeste 0.2 -- -- 98
2019-04-07 05:00:00 6 10 Oeste 29 Sudoeste 0 -- -- 98
2019-04-07 04:00:00 6 8 Oeste 27 Oeste 0 -- -- 98
2019-04-07 03:00:00 5.8 11 Sudoeste 25 Sudoeste 0.2 -- -- 98
2019-04-07 02:00:00 5.8 10 Sudoeste 24 Sudoeste 0.4 -- -- 96
2019-04-07 01:00:00 5.6 12 Sudoeste 23 Sudoeste 0.2 -- -- 95
2019-04-07 00:00:00 5.5 9 Sudoeste 22 Sudoeste 0 -- -- 93
2019-04-06 23:00:00 5.3 11 Sudoeste 19 Sudoeste 0 -- -- 92
2019-04-06 22:00:00 5.7 10 Sudoeste 35 Sudoeste 0 -- -- 87
2019-04-06 21:00:00 7.6 9 Oeste 30 Oeste 0 -- -- 75
2019-04-06 20:00:00 8.4 12 Oeste 32 Oeste 0 -- -- 71
2019-04-06 19:00:00 8.2 13 Sudoeste 39 Oeste 0 -- -- 79
2019-04-06 18:00:00 7.8 18 Sudoeste 35 Sudoeste 0 -- -- 82
2019-04-06 17:00:00 7.1 17 Sudoeste 47 Oeste 0.2 -- -- 89
2019-04-06 16:00:00 6.2 20 Sudoeste 44 Oeste 1.2 -- -- 89
2019-04-06 15:00:00 9.8 16 Oeste 40 Sudoeste 0 -- -- 70
2019-04-06 14:00:00 7.6 15 Sudoeste 48 Oeste 0.2 -- -- 83
2019-04-06 13:00:00 7.4 18 Sudoeste 39 Oeste 0 -- -- 78
2019-04-06 12:00:00 7.2 15 Sudoeste 38 Sudoeste 0 -- -- 86
2019-04-06 11:00:00 6 14 Sudoeste 35 Sudoeste 0.2 -- -- 96
2019-04-06 10:00:00 5 16 Sudoeste 36 Sudoeste 0.2 -- -- 97
2019-04-06 09:00:00 4.9 18 Sudoeste 33 Sudoeste 0.4 -- -- 98
2019-04-06 08:00:00 4.8 18 Sudoeste 24 Sudoeste 0.2 -- -- 99
2019-04-06 07:00:00 4.2 13 Sudoeste 24 Sudoeste 0 -- -- 98
2019-04-06 06:00:00 4.3 14 Sudoeste 21 Sudoeste 0 -- -- 98
2019-04-06 05:00:00 4.4 12 Sudoeste 21 Sudoeste 0 -- -- 97
2019-04-06 04:00:00 4.4 11 Sudoeste 22 Sudoeste 0 -- -- 95
2019-04-06 03:00:00 4.5 12 Sudoeste 22 Sudoeste 0 -- -- 93
2019-04-06 02:00:00 4.4 8 Sudoeste 21 Oeste 0 -- -- 95
2019-04-06 01:00:00 3.9 9 Sudoeste 18 Sudoeste 0 -- -- 94
2019-04-06 00:00:00 4.7 8 Sudoeste 22 Oeste 0 -- -- 92
2019-04-05 23:00:00 5.3 8 Oeste 25 Oeste 0 -- -- 89
2019-04-05 22:00:00 5.6 11 Sudoeste 23 Sudoeste 0 -- -- 89
2019-04-05 21:00:00 5.8 12 Sudoeste 30 Sudoeste 0 -- -- 86
2019-04-05 20:00:00 6.6 10 Sudoeste 27 Sudoeste 0.2 -- -- 88
2019-04-05 19:00:00 5.9 14 Oeste 49 Sudoeste 0.4 -- -- 84
2019-04-05 18:00:00 9.9 12 Oeste 37 Sudoeste 0 -- -- 54
2019-04-05 17:00:00 10.6 17 Oeste 38 Sudoeste 0 -- -- 49
2019-04-05 16:00:00 11 17 Oeste 33 Sudoeste 0 -- -- 56
2019-04-05 15:00:00 7 14 Oeste 33 Oeste 0.4 -- -- 80
2019-04-05 14:00:00 7.6 14 Sudoeste 30 Sudoeste 0 -- -- 73
2019-04-05 13:00:00 6.2 12 Sudoeste 28 Sudoeste 0 -- -- 88
2019-04-05 12:00:00 5.6 8 Oeste 28 Oeste 0 -- -- 93
2019-04-05 11:00:00 5 17 Oeste 37 Oeste 0.4 -- -- 94
2019-04-05 10:00:00 6.3 12 Sudoeste 21 Sudoeste 0 -- -- 97
2019-04-05 09:00:00 5.9 8 Sudoeste 24 Sur 0.6 -- -- 98
2019-04-05 08:00:00 5.8 14 Sur 24 Sur 0.2 -- -- 98
2019-04-05 07:00:00 5.8 17 Sur 28 Sur 0 -- -- 98
2019-04-05 06:00:00 5.9 17 Sudoeste 31 Sudoeste 0 -- -- 98
2019-04-05 05:00:00 5.8 17 Sur 31 Sur 0.2 -- -- 97
2019-04-05 04:00:00 5.6 23 Sur 38 Sur 0.2 -- -- 96
2019-04-05 03:00:00 5.7 21 Sur 33 Sur 0.4 -- -- 96
2019-04-05 02:00:00 5.6 13 Sur 22 Sur 0.8 -- -- 96
2019-04-05 01:00:00 5.8 9 Sur 15 Oeste 0.4 -- -- 93
2019-04-05 00:00:00 6 6 Oeste 23 Oeste 0.8 -- -- 90
2019-04-04 23:00:00 7.7 11 Oeste 36 Sudoeste 0 -- -- 72
2019-04-04 22:00:00 10.6 12 Oeste 33 Sudoeste 0 -- -- 48
2019-04-04 21:00:00 11.5 10 Sudoeste 22 Sudoeste 0 -- -- 36
2019-04-04 20:00:00 12.5 8 Sudoeste 32 Sudoeste 0 -- -- 31
2019-04-04 19:00:00 13.9 15 Sudoeste 34 Sudoeste 0 -- -- 28
2019-04-04 18:00:00 15.4 19 Sudoeste 37 Sudoeste 0 -- -- 28
2019-04-04 17:00:00 15.7 17 Sudoeste 32 Sudoeste 0 -- -- 27
2019-04-04 16:00:00 15 15 Sudoeste 27 Sudoeste 0 -- -- 31
2019-04-04 15:00:00 14.5 14 Sudoeste 25 Sudoeste 0 -- -- 34
2019-04-04 14:00:00 13.5 9 Oeste 22 Sudoeste 0 -- -- 35
2019-04-04 13:00:00 12.3 9 Sudoeste 19 Sudoeste 0 -- -- 39
2019-04-04 12:00:00 10.4 6 Sudoeste 10 Sudoeste 0 -- -- 44
2019-04-04 11:00:00 7.4 4 Sur 9 Sur 0 -- -- 51
2019-04-04 10:00:00 5.2 0 Calma 7 Nordeste 0 -- -- 58
2019-04-04 09:00:00 3.5 3 Nordeste 8 Norte 0 -- -- 64
2019-04-04 08:00:00 2 2 Sudoeste 6 Oeste 0 -- -- 63
2019-04-04 07:00:00 1.9 3 Norte 8 Noroeste 0 -- -- 63
2019-04-04 06:00:00 3.5 2 Oeste 11 Noroeste 0 -- -- 56
2019-04-04 05:00:00 4.5 0 Calma 29 Noroeste 0 -- -- 52
2019-04-04 04:00:00 5.4 21 Noroeste 34 Noroeste 0 -- -- 51
2019-04-04 03:00:00 6.1 21 Noroeste 33 Noroeste 0 -- -- 50
2019-04-04 02:00:00 6.7 20 Noroeste 37 Noroeste 0 -- -- 46
2019-04-04 01:00:00 7.5 24 Noroeste 44 Noroeste 0 -- -- 47
2019-04-04 00:00:00 8.3 20 Noroeste 37 Noroeste 0 -- -- 45
2019-04-03 23:00:00 8.5 12 Noroeste 32 Noroeste 0 -- -- 42
2019-04-03 22:00:00 9.6 14 Noroeste 39 Oeste 0 -- -- 39
2019-04-03 21:00:00 10.8 20 Noroeste 37 Oeste 0 -- -- 39
2019-04-03 20:00:00 12.4 22 Noroeste 45 Noroeste 0 -- -- 36
2019-04-03 19:00:00 14.6 19 Noroeste 39 Noroeste 0 -- -- 33
2019-04-03 18:00:00 15 24 Noroeste 48 Noroeste 0 -- -- 33
2019-04-03 17:00:00 16 18 Oeste 38 Oeste 0 -- -- 31
2019-04-03 16:00:00 15.8 19 Noroeste 38 Noroeste 0 -- -- 31
2019-04-03 15:00:00 15.5 16 Noroeste 35 Oeste 0 -- -- 39
2019-04-03 14:00:00 15.1 14 Oeste 29 Noroeste 0 -- -- 44
2019-04-03 13:00:00 14.1 12 Sudoeste 27 Sudoeste 0 -- -- 52
2019-04-03 12:00:00 12.2 9 Oeste 23 Oeste 0 -- -- 61
2019-04-03 11:00:00 9 6 Sudoeste 14 Sudoeste 0 -- -- 76
2019-04-03 10:00:00 6.8 6 Sur 10 Sudoeste 0 -- -- 87
2019-04-03 09:00:00 5.9 4 Sur 10 Sur 0 -- -- 91
2019-04-03 08:00:00 5.3 6 Sur 12 Sudeste 0 -- -- 91
2019-04-03 07:00:00 6 5 Sur 9 Sur 0 -- -- 88
2019-04-03 06:00:00 6.6 5 Sudoeste 10 Sur 0 -- -- 85
2019-04-03 05:00:00 7.3 8 Sur 12 Sudeste 0 -- -- 85
2019-04-03 04:00:00 7.6 5 Sudeste 10 Sudeste 0 -- -- 82
2019-04-03 03:00:00 8.8 5 Sur 9 Sur 0 -- -- 79
2019-04-03 02:00:00 9.7 6 Sudeste 8 Sudeste 0 -- -- 75
2019-04-03 01:00:00 10.8 0 Calma 11 Sudoeste 0 -- -- 69
2019-04-03 00:00:00 12 6 Sudoeste 15 Sudoeste 0 -- -- 65
2019-04-02 23:00:00 13.1 7 Oeste 20 Oeste 0 -- -- 61
2019-04-02 22:00:00 14.2 6 Oeste 13 Oeste 0 -- -- 52
2019-04-02 21:00:00 15.7 6 Oeste 15 Oeste 0 -- -- 48
2019-04-02 20:00:00 17.8 4 Oeste 30 Sudoeste 0 -- -- 43
2019-04-02 19:00:00 19.2 7 Sudoeste 19 Sudoeste 0 -- -- 41
2019-04-02 18:00:00 18 5 Oeste 18 Sudoeste 0 -- -- 44
2019-04-02 17:00:00 19.4 8 Sudoeste 26 Sur 0 -- -- 39
2019-04-02 16:00:00 19.4 10 Oeste 27 Sudoeste 0 -- -- 42
2019-04-02 15:00:00 19 9 Sudoeste 24 Sudoeste 0 -- -- 45
2019-04-02 14:00:00 17.9 15 Sudoeste 25 Sudoeste 0 -- -- 50
2019-04-02 13:00:00 16.3 11 Sudoeste 22 Sudoeste 0 -- -- 61
2019-04-02 12:00:00 14.5 10 Sur 17 Sudoeste 0 -- -- 71
2019-04-02 11:00:00 12.2 10 Sur 16 Sudoeste 0 -- -- 77
2019-04-02 10:00:00 10.1 5 Sur 8 Sur 0 -- -- 85
2019-04-02 09:00:00 8.5 3 Sudeste 10 Sudeste 0 -- -- 90
2019-04-02 08:00:00 7.6 8 Sudeste 14 Sudeste 0 -- -- 91
2019-04-02 07:00:00 8.2 9 Sudeste 15 Este 0 -- -- 90
2019-04-02 06:00:00 8.5 6 Sudeste 10 Sudeste 0 -- -- 89
2019-04-02 05:00:00 8.7 5 Sudeste 10 Sudeste 0 -- -- 88
2019-04-02 04:00:00 9.7 5 Sur 10 Sudoeste 0 -- -- 84
2019-04-02 03:00:00 10.2 5 Sur 10 Sur 0 -- -- 84
2019-04-02 02:00:00 10.5 6 Sur 10 Sur 0 -- -- 85
2019-04-02 01:00:00 10.6 4 Sur 9 Sudeste 0 -- -- 83
2019-04-02 00:00:00 10.9 6 Sur 11 Sudoeste 0 -- -- 81
2019-04-01 23:00:00 11.3 6 Sudoeste 13 Sudoeste 0 -- -- 79
2019-04-01 22:00:00 12.3 6 Sudoeste 8 Sudoeste 0 -- -- 76
2019-04-01 21:00:00 13.3 5 Sudoeste 17 Sur 0 -- -- 71
2019-04-01 20:00:00 14.8 12 Sur 21 Sur 0 -- -- 65
2019-04-01 19:00:00 16.6 0 Calma 8 Nordeste 0 -- -- 47
2019-04-01 18:00:00 16.6 4 Sudeste 15 Este 0 -- -- 47
2019-04-01 17:00:00 16.1 7 Nordeste 17 Nordeste 0 -- -- 54
2019-04-01 16:00:00 13.9 11 Nordeste 15 Nordeste 0 -- -- 68
2019-04-01 15:00:00 13.4 6 Sur 14 Sudoeste 0 -- -- 69
2019-04-01 14:00:00 13.4 6 Sudoeste 21 Sudoeste 0 -- -- 68
2019-04-01 13:00:00 14.3 11 Sudoeste 19 Sudoeste 0 -- -- 61
2019-04-01 12:00:00 14.9 6 Sudoeste 13 Sur 0 -- -- 57
2019-04-01 11:00:00 15 3 Este 26 Sur 0 -- -- 59
2019-04-01 10:00:00 12.5 11 Nordeste 20 Nordeste 0 -- -- 69
2019-04-01 09:00:00 9.3 14 Nordeste 18 Nordeste 0 -- -- 83
2019-04-01 08:00:00 8.3 10 Nordeste 20 Nordeste 0 -- -- 83
2019-04-01 07:00:00 8.8 15 Nordeste 20 Nordeste 0 -- -- 82
2019-04-01 06:00:00 9 13 Nordeste 19 Nordeste 0 -- -- 79
2019-04-01 05:00:00 8.8 9 Este 17 Nordeste 0 -- -- 80
2019-04-01 04:00:00 9.8 14 Nordeste 19 Nordeste 0 -- -- 77
2019-04-01 03:00:00 9.8 14 Nordeste 19 Este 0 -- -- 76
2019-04-01 02:00:00 9.3 13 Este 19 Nordeste 0 -- -- 78
2019-04-01 01:00:00 9.9 14 Nordeste 20 Nordeste 0 -- -- 75
2019-04-01 00:00:00 9.9 14 Nordeste 19 Nordeste 0 -- -- 74
2019-03-31 23:00:00 11 17 Este 24 Este 0 -- -- 69
2019-03-31 22:00:00 11.6 16 Nordeste 24 Nordeste 0 -- -- 68
2019-03-31 21:00:00 12.7 21 Nordeste 29 Nordeste 0 -- -- 63
2019-03-31 20:00:00 14.7 21 Este 32 Nordeste 0 -- -- 55
2019-03-31 19:00:00 15.8 24 Nordeste 32 Nordeste 0 -- -- 50
2019-03-31 18:00:00 16.8 19 Nordeste 31 Nordeste 0 -- -- 46
2019-03-31 17:00:00 18.6 17 Nordeste 33 Nordeste 0 -- -- 43
2019-03-31 16:00:00 19 16 Nordeste 32 Nordeste 0 -- -- 43
2019-03-31 15:00:00 18.4 19 Nordeste 36 Nordeste 0 -- -- 44
2019-03-31 14:00:00 17.2 20 Nordeste 36 Nordeste 0 -- -- 47
2019-03-31 13:00:00 15.8 28 Nordeste 44 Nordeste 0 -- -- 49
2019-03-31 12:00:00 14.9 32 Nordeste 46 Nordeste 0 -- -- 53
2019-03-31 11:00:00 13.7 22 Este 40 Nordeste 0 -- -- 56
2019-03-31 10:00:00 10.6 31 Nordeste 39 Nordeste 0 -- -- 66
2019-03-31 09:00:00 9.7 25 Nordeste 32 Nordeste 0 -- -- 68
2019-03-31 08:00:00 9.8 16 Nordeste 22 Nordeste 0 -- -- 65
2019-03-31 07:00:00 10.5 14 Nordeste 21 Nordeste 0 -- -- 57
2019-03-31 06:00:00 10 13 Nordeste 17 Norte 0 -- -- 60
2019-03-31 05:00:00 10.1 11 Nordeste 14 Nordeste 0 -- -- 60
2019-03-31 03:00:00 11.5 14 Nordeste 17 Nordeste 0 -- -- 60
2019-03-31 01:00:00 12.6 0 Calma 16 Sur 0 -- -- 55
2019-03-31 00:00:00 13.1 10 Sur 19 Nordeste 0 -- -- 42
2019-03-30 23:00:00 13.5 14 Este 24 Nordeste 0 -- -- 40
2019-03-30 22:00:00 13.6 21 Nordeste 27 Nordeste 0 -- -- 38
2019-03-30 21:00:00 13.8 21 Nordeste 26 Nordeste 0 -- -- 40
2019-03-30 20:00:00 14.7 17 Nordeste 22 Nordeste 0 -- -- 38
2019-03-30 19:00:00 16.7 13 Nordeste 22 Nordeste 0 -- -- 33
2019-03-30 18:00:00 18.5 15 Nordeste 23 Nordeste 0 -- -- 29
2019-03-30 17:00:00 19.1 19 Nordeste 28 Nordeste 0 -- -- 28
2019-03-30 16:00:00 19.5 17 Nordeste 33 Nordeste 0 -- -- 28
2019-03-30 15:00:00 18.8 20 Nordeste 32 Nordeste 0 -- -- 31
2019-03-30 14:00:00 18 22 Nordeste 33 Nordeste 0 -- -- 37
2019-03-30 13:00:00 16.6 23 Nordeste 36 Nordeste 0 -- -- 37
2019-03-30 12:00:00 15.2 24 Nordeste 39 Nordeste 0 -- -- 41
2019-03-30 11:00:00 13.5 30 Nordeste 45 Nordeste 0 -- -- 47
2019-03-30 10:00:00 11.9 32 Nordeste 42 Nordeste 0 -- -- 50
2019-03-30 09:00:00 9.9 29 Nordeste 37 Nordeste 0 -- -- 55
2019-03-30 08:00:00 8.4 23 Nordeste 32 Nordeste 0 -- -- 58
2019-03-30 07:00:00 7.5 23 Nordeste 33 Nordeste 0 -- -- 59
2019-03-30 06:00:00 7.6 18 Nordeste 23 Nordeste 0 -- -- 56
2019-03-30 05:00:00 7.7 16 Nordeste 28 Nordeste 0 -- -- 53
2019-03-30 04:00:00 9.1 23 Nordeste 31 Nordeste 0 -- -- 48
2019-03-30 03:00:00 10.2 24 Nordeste 31 Nordeste 0 -- -- 44
2019-03-30 02:00:00 9.7 17 Nordeste 21 Nordeste 0 -- -- 42
2019-03-30 01:00:00 10.5 18 Nordeste 21 Nordeste 0 -- -- 38
2019-03-30 00:00:00 11.3 17 Nordeste 18 Nordeste 0 -- -- 35
2019-03-29 23:00:00 10.6 14 Nordeste 16 Nordeste 0 -- -- 39
2019-03-29 22:00:00 12.9 5 Norte 7 Norte 0 -- -- 32
2019-03-29 21:00:00 13.4 0 Calma 7 Oeste 0 -- -- 29
2019-03-29 20:00:00 14.9 3 Sur 13 Nordeste 0 -- -- 29
2019-03-29 19:00:00 16.9 7 Nordeste 16 Nordeste 0 -- -- 29
2019-03-29 18:00:00 18.5 5 Este 26 Este 0 -- -- 27
2019-03-29 17:00:00 18.7 10 Este 30 Este 0 -- -- 25
2019-03-29 16:00:00 18.4 14 Este 30 Nordeste 0 -- -- 26
2019-03-29 15:00:00 18.1 19 Nordeste 34 Nordeste 0 -- -- 26
2019-03-29 14:00:00 17.5 18 Nordeste 35 Nordeste 0 -- -- 26
2019-03-29 13:00:00 16.2 21 Nordeste 32 Nordeste 0 -- -- 29
2019-03-29 12:00:00 15.2 21 Nordeste 32 Nordeste 0 -- -- 33
2019-03-29 11:00:00 13.9 23 Nordeste 32 Nordeste 0 -- -- 35
2019-03-29 10:00:00 12.7 20 Nordeste 28 Nordeste 0 -- -- 34
2019-03-29 09:00:00 12.1 13 Nordeste 18 Nordeste 0 -- -- 37
2019-03-29 08:00:00 9 13 Nordeste 17 Este 0 -- -- 43
2019-03-29 07:00:00 8.8 13 Este 19 Este 0 -- -- 37
2019-03-29 06:00:00 8.5 13 Nordeste 21 Nordeste 0 -- -- 41
2019-03-29 05:00:00 9.1 17 Este 25 Este 0 -- -- 40
2019-03-29 04:00:00 12.1 14 Este 27 Este 0 -- -- 31
2019-03-29 03:00:00 12.7 15 Este 24 Este 0 -- -- 29
2019-03-29 02:00:00 10.8 14 Este 18 Este 0 -- -- 34
2019-03-29 01:00:00 13.1 11 Este 24 Este 0 -- -- 28
2019-03-29 00:00:00 10.9 16 Este 22 Este 0 -- -- 33
2019-03-28 23:00:00 11.8 15 Este 22 Nordeste 0 -- -- 30
2019-03-28 22:00:00 13.7 20 Nordeste 27 Nordeste 0 -- -- 27
2019-03-28 21:00:00 13.4 20 Nordeste 23 Nordeste 0 -- -- 28
2019-03-28 20:00:00 14.7 17 Nordeste 26 Nordeste 0 -- -- 28
2019-03-28 19:00:00 17.4 19 Nordeste 28 Nordeste 0 -- -- 24
2019-03-28 18:00:00 19.2 14 Nordeste 27 Nordeste 0 -- -- 22
2019-03-28 17:00:00 19.9 19 Nordeste 31 Este 0 -- -- 22
2019-03-28 16:00:00 19.8 17 Nordeste 30 Nordeste 0 -- -- 22
2019-03-28 15:00:00 19.9 15 Nordeste 26 Nordeste 0 -- -- 23
2019-03-28 14:00:00 19.1 17 Nordeste 30 Nordeste 0 -- -- 25
2019-03-28 13:00:00 18.8 12 Nordeste 29 Nordeste 0 -- -- 25
2019-03-28 12:00:00 17.6 17 Nordeste 26 Nordeste 0 -- -- 27
2019-03-28 11:00:00 15.3 15 Nordeste 28 Nordeste 0 -- -- 33
2019-03-28 10:00:00 13.9 19 Nordeste 28 Nordeste 0 -- -- 36
2019-03-28 09:00:00 12.3 22 Nordeste 27 Nordeste 0 -- -- 35
2019-03-28 08:00:00 9.2 19 Nordeste 25 Nordeste 0 -- -- 40
2019-03-28 07:00:00 8.1 15 Nordeste 18 Nordeste 0 -- -- 41
2019-03-28 06:00:00 8.7 15 Nordeste 17 Nordeste 0 -- -- 41
2019-03-28 05:00:00 9 13 Nordeste 20 Este 0 -- -- 37
2019-03-28 04:00:00 9.6 17 Este 19 Este 0 -- -- 37
2019-03-28 03:00:00 9.5 15 Este 18 Este 0 -- -- 38
2019-03-28 02:00:00 9.9 15 Nordeste 16 Nordeste 0 -- -- 37
2019-03-28 01:00:00 13.2 8 Este 14 Este 0 -- -- 28
2019-03-28 00:00:00 11.5 8 Este 17 Este 0 -- -- 34
2019-03-27 23:00:00 11.2 16 Nordeste 19 Nordeste 0 -- -- 35
2019-03-27 22:00:00 12.1 18 Nordeste 19 Nordeste 0 -- -- 33
2019-03-27 21:00:00 12.2 15 Nordeste 18 Nordeste 0 -- -- 33
2019-03-27 20:00:00 13.6 15 Nordeste 22 Nordeste 0 -- -- 30
2019-03-27 19:00:00 16.6 15 Nordeste 32 Nordeste 0 -- -- 24
2019-03-27 18:00:00 18.3 21 Nordeste 37 Nordeste 0 -- -- 21
2019-03-27 17:00:00 18.7 20 Nordeste 36 Este 0 -- -- 25
2019-03-27 16:00:00 18.7 19 Nordeste 35 Nordeste 0 -- -- 26
2019-03-27 15:00:00 17.8 19 Nordeste 36 Nordeste 0 -- -- 31
2019-03-27 14:00:00 16.8 19 Este 34 Nordeste 0 -- -- 35
2019-03-27 13:00:00 15.4 23 Nordeste 44 Nordeste 0 -- -- 37
2019-03-27 12:00:00 14 33 Nordeste 44 Nordeste 0 -- -- 39
2019-03-27 11:00:00 12.7 29 Nordeste 44 Nordeste 0 -- -- 43
2019-03-27 10:00:00 10.7 32 Nordeste 46 Nordeste 0 -- -- 49
2019-03-27 09:00:00 8.8 33 Nordeste 47 Nordeste 0 -- -- 58
2019-03-27 08:00:00 7.4 30 Nordeste 43 Nordeste 0 -- -- 63
2019-03-27 07:00:00 6.9 31 Nordeste 44 Nordeste 0 -- -- 65
2019-03-27 06:00:00 7.7 39 Nordeste 49 Nordeste 0 -- -- 60
2019-03-27 05:00:00 8.7 34 Nordeste 42 Nordeste 0 -- -- 54
2019-03-27 04:00:00 9.5 23 Nordeste 39 Nordeste 0 -- -- 48
2019-03-27 03:00:00 10.5 28 Nordeste 34 Nordeste 0 -- -- 45
2019-03-27 02:00:00 12 28 Nordeste 34 Nordeste 0 -- -- 46
2019-03-27 01:00:00 12.6 28 Nordeste 37 Nordeste 0 -- -- 43
2019-03-27 00:00:00 13.1 17 Nordeste 29 Nordeste 0 -- -- 41
2019-03-26 23:00:00 14.3 23 Este 29 Este 0 -- -- 37
2019-03-26 22:00:00 15.4 17 Este 23 Nordeste 0 -- -- 32
2019-03-26 21:00:00 16 21 Nordeste 27 Nordeste 0 -- -- 33
2019-03-26 20:00:00 17.2 21 Nordeste 34 Nordeste 0 -- -- 32
2019-03-26 19:00:00 19 27 Nordeste 38 Nordeste 0 -- -- 28
2019-03-26 18:00:00 20.4 26 Nordeste 44 Nordeste 0 -- -- 28
2019-03-26 17:00:00 21 24 Este 44 Nordeste 0 -- -- 28
2019-03-26 16:00:00 20.3 34 Nordeste 48 Nordeste 0 -- -- 28
2019-03-26 15:00:00 19.9 26 Nordeste 47 Nordeste 0 -- -- 31
2019-03-26 14:00:00 18.3 37 Nordeste 53 Nordeste 0 -- -- 33
2019-03-26 13:00:00 16.4 36 Nordeste 54 Nordeste 0 -- -- 37
2019-03-26 12:00:00 15 42 Nordeste 60 Nordeste 0 -- -- 38
2019-03-26 11:00:00 13.2 45 Nordeste 69 Nordeste 0 -- -- 41
2019-03-26 10:00:00 11.2 50 Nordeste 70 Nordeste 0 -- -- 44
2019-03-26 09:00:00 10 51 Nordeste 69 Nordeste 0 -- -- 46
2019-03-26 08:00:00 8.8 54 Nordeste 68 Nordeste 0 -- -- 47
2019-03-26 07:00:00 8.7 45 Nordeste 59 Nordeste 0 -- -- 44
2019-03-26 06:00:00 10.6 46 Nordeste 59 Nordeste 0 -- -- 35
2019-03-26 05:00:00 11.4 37 Nordeste 49 Nordeste 0 -- -- 31
2019-03-26 04:00:00 12.8 39 Nordeste 55 Nordeste 0 -- -- 27
2019-03-26 03:00:00 13.5 37 Nordeste 52 Este 0 -- -- 26
2019-03-26 02:00:00 13.5 31 Nordeste 46 Este 0 -- -- 31
2019-03-26 01:00:00 14.8 34 Nordeste 50 Nordeste 0 -- -- 32
2019-03-26 00:00:00 14.5 22 Nordeste 28 Este 0 -- -- 36
2019-03-25 23:00:00 14.2 19 Nordeste 26 Este 0 -- -- 36
2019-03-25 22:00:00 15.4 21 Nordeste 27 Nordeste 0 -- -- 32
2019-03-25 21:00:00 15.4 15 Nordeste 17 Nordeste 0 -- -- 34
2019-03-25 20:00:00 16.8 10 Nordeste 16 Nordeste 0 -- -- 31
2019-03-25 19:00:00 19.2 13 Nordeste 30 Nordeste 0 -- -- 27
2019-03-25 18:00:00 21.1 21 Este 33 Nordeste 0 -- -- 22
2019-03-25 17:00:00 21.7 21 Nordeste 34 Nordeste 0 -- -- 22
2019-03-25 16:00:00 21.8 23 Nordeste 36 Este 0 -- -- 23
2019-03-25 15:00:00 21.8 23 Nordeste 35 Nordeste 0 -- -- 24
2019-03-25 14:00:00 21.1 21 Nordeste 35 Nordeste 0 -- -- 25
2019-03-25 13:00:00 20.6 21 Nordeste 32 Nordeste 0 -- -- 28
2019-03-25 12:00:00 19.3 20 Nordeste 35 Nordeste 0 -- -- 31
2019-03-25 11:00:00 17.6 25 Nordeste 33 Nordeste 0 -- -- 38
2019-03-25 10:00:00 16.1 25 Nordeste 31 Nordeste 0 -- -- 42
2019-03-25 09:00:00 14.2 23 Nordeste 33 Nordeste 0 -- -- 46
2019-03-25 08:00:00 12 24 Nordeste 30 Nordeste 0 -- -- 49
2019-03-25 07:00:00 10.8 21 Nordeste 25 Nordeste 0 -- -- 52
2019-03-25 06:00:00 10.9 19 Nordeste 24 Nordeste 0 -- -- 52
2019-03-25 05:00:00 11.6 19 Nordeste 23 Nordeste 0 -- -- 50
2019-03-25 04:00:00 12.1 19 Nordeste 22 Nordeste 0 -- -- 48
2019-03-25 03:00:00 11.8 15 Nordeste 17 Este 0 -- -- 49
2019-03-25 02:00:00 12.8 13 Nordeste 14 Nordeste 0 -- -- 45
2019-03-25 01:00:00 11.8 9 Nordeste 15 Nordeste 0 -- -- 52
2019-03-25 00:00:00 12.5 10 Este 14 Este 0 -- -- 51
2019-03-24 23:00:00 14.9 8 Este 13 Este 0 -- -- 42
2019-03-24 22:00:00 15.5 6 Este 19 Este 0 -- -- 39
2019-03-24 21:00:00 14.6 16 Nordeste 22 Nordeste 0 -- -- 39
2019-03-24 20:00:00 16.5 15 Nordeste 26 Nordeste 0 -- -- 35
2019-03-24 19:00:00 18.3 15 Nordeste 35 Nordeste 0 -- -- 33
2019-03-24 18:00:00 20.3 22 Nordeste 33 Nordeste 0 -- -- 31
2019-03-24 17:00:00 20.6 23 Nordeste 36 Nordeste 0 -- -- 30
2019-03-24 16:00:00 20.3 19 Nordeste 38 Nordeste 0 -- -- 32
2019-03-24 15:00:00 20.1 21 Nordeste 39 Este 0 -- -- 33
2019-03-24 14:00:00 19.7 21 Nordeste 43 Este 0 -- -- 35
2019-03-24 13:00:00 18.2 33 Nordeste 44 Este 0 -- -- 38
2019-03-24 12:00:00 16.9 29 Nordeste 45 Nordeste 0 -- -- 43
2019-03-24 11:00:00 15.3 33 Nordeste 46 Este 0 -- -- 45
2019-03-24 10:00:00 13.6 31 Este 44 Este 0 -- -- 51
2019-03-24 09:00:00 11.7 27 Este 40 Este 0 -- -- 59
2019-03-24 08:00:00 9.8 23 Este 31 Nordeste 0 -- -- 65
2019-03-24 07:00:00 9.6 24 Nordeste 31 Este 0 -- -- 65
2019-03-24 06:00:00 9.9 26 Este 34 Nordeste 0 -- -- 63
2019-03-24 05:00:00 9.9 23 Este 29 Nordeste 0 -- -- 63
2019-03-24 04:00:00 10.8 20 Nordeste 26 Este 0 -- -- 60
2019-03-24 03:00:00 11.1 18 Nordeste 23 Nordeste 0 -- -- 60
2019-03-24 02:00:00 10.2 17 Este 20 Este 0 -- -- 64
2019-03-24 01:00:00 10.9 16 Este 20 Este 0 -- -- 61
2019-03-24 00:00:00 12.3 14 Este 22 Sudeste 0 -- -- 56
2019-03-23 23:00:00 14.3 13 Este 23 Sudeste 0 -- -- 47
2019-03-23 22:00:00 14.9 13 Este 23 Este 0 -- -- 45
2019-03-23 21:00:00 15 13 Este 24 Este 0 -- -- 43
2019-03-23 20:00:00 16.2 12 Este 23 Este 0 -- -- 38
2019-03-23 19:00:00 18 19 Este 35 Este 0 -- -- 34
2019-03-23 18:00:00 18.4 17 Este 35 Nordeste 0 -- -- 33
2019-03-23 17:00:00 20.4 23 Nordeste 38 Nordeste 0 -- -- 31
2019-03-23 16:00:00 19.9 22 Nordeste 46 Nordeste 0 -- -- 33
2019-03-23 15:00:00 18.4 30 Nordeste 46 Nordeste 0 -- -- 36
2019-03-23 14:00:00 18.7 30 Nordeste 43 Nordeste 0 -- -- 35
2019-03-23 13:00:00 18.2 28 Nordeste 44 Nordeste 0 -- -- 39
2019-03-23 12:00:00 17 21 Nordeste 36 Este 0 -- -- 42
2019-03-23 11:00:00 16.4 23 Nordeste 33 Este 0 -- -- 43
2019-03-23 10:00:00 14.8 22 Nordeste 29 Nordeste 0 -- -- 48
2019-03-23 09:00:00 12.6 23 Nordeste 29 Nordeste 0 -- -- 52
2019-03-23 08:00:00 10.3 21 Este 28 Nordeste 0 -- -- 59
2019-03-23 07:00:00 9.1 19 Este 27 Nordeste 0 -- -- 63
2019-03-23 06:00:00 9 22 Nordeste 27 Este 0 -- -- 63
2019-03-23 05:00:00 9.2 19 Nordeste 24 Nordeste 0 -- -- 60
2019-03-23 04:00:00 8.9 17 Nordeste 21 Nordeste 0 -- -- 61
2019-03-23 03:00:00 11.2 14 Este 25 Este 0 -- -- 51
2019-03-23 02:00:00 12.9 15 Este 24 Este 0 -- -- 44
2019-03-23 01:00:00 10.1 18 Este 20 Nordeste 0 -- -- 44
2019-03-23 00:00:00 11.1 18 Nordeste 22 Nordeste 0 -- -- 39
2019-03-22 23:00:00 11.1 20 Nordeste 22 Nordeste 0 -- -- 39
2019-03-22 22:00:00 11.8 20 Nordeste 21 Nordeste 0 -- -- 36
2019-03-22 21:00:00 12 18 Nordeste 25 Nordeste 0 -- -- 36
2019-03-22 20:00:00 13 18 Nordeste 30 Nordeste 0 -- -- 34
2019-03-22 19:00:00 15.4 22 Nordeste 36 Nordeste 0 -- -- 30
2019-03-22 18:00:00 17.1 25 Nordeste 35 Este 0 -- -- 25
2019-03-22 17:00:00 17.8 26 Este 35 Este 0 -- -- 24
2019-03-22 16:00:00 17.7 22 Nordeste 38 Nordeste 0 -- -- 29
2019-03-22 15:00:00 17.3 23 Este 35 Nordeste 0 -- -- 29
2019-03-22 14:00:00 16.3 22 Nordeste 39 Nordeste 0 -- -- 35
2019-03-22 13:00:00 15.2 20 Nordeste 36 Este 0 -- -- 37
2019-03-22 12:00:00 14 14 Nordeste 29 Nordeste 0 -- -- 39
2019-03-22 11:00:00 12.4 21 Nordeste 31 Nordeste 0 -- -- 42
2019-03-22 10:00:00 11.3 21 Nordeste 32 Nordeste 0 -- -- 42
2019-03-22 09:00:00 8.9 23 Nordeste 30 Nordeste 0 -- -- 46
2019-03-22 08:00:00 6.2 15 Nordeste 17 Nordeste 0 -- -- 54
2019-03-22 07:00:00 5.3 15 Este 18 Este 0 -- -- 55
2019-03-22 06:00:00 6 15 Este 19 Este 0 -- -- 53
2019-03-22 05:00:00 6.9 13 Nordeste 15 Nordeste 0 -- -- 49
2019-03-22 04:00:00 8.8 10 Este 17 Este 0 -- -- 41
2019-03-22 03:00:00 7.9 12 Este 16 Este 0 -- -- 45
2019-03-22 02:00:00 10.5 9 Este 15 Este 0 -- -- 35
2019-03-22 01:00:00 10.3 9 Este 16 Este 0 -- -- 36
2019-03-22 00:00:00 10.8 9 Este 22 Este 0 -- -- 36
2019-03-21 23:00:00 10.2 17 Este 22 Nordeste 0 -- -- 39
2019-03-21 22:00:00 10.8 17 Nordeste 21 Nordeste 0 -- -- 39
2019-03-21 21:00:00 11.1 14 Nordeste 17 Nordeste 0 -- -- 40
2019-03-21 20:00:00 11.5 14 Nordeste 19 Nordeste 0 -- -- 40
2019-03-21 19:00:00 14.5 13 Nordeste 23 Nordeste 0 -- -- 32
2019-03-21 18:00:00 16.1 10 Norte 28 Nordeste 0 -- -- 27
2019-03-21 17:00:00 16.4 14 Este 26 Nordeste 0 -- -- 26
2019-03-21 16:00:00 16.3 15 Nordeste 32 Nordeste 0 -- -- 27
2019-03-21 15:00:00 16.6 12 Norte 22 Nordeste 0 -- -- 26
2019-03-21 14:00:00 15.7 15 Nordeste 28 Nordeste 0 -- -- 31
2019-03-21 13:00:00 14.9 7 Nordeste 22 Norte 0 -- -- 37
2019-03-21 12:00:00 14.1 13 Nordeste 23 Norte 0 -- -- 39
2019-03-21 11:00:00 13.3 12 Nordeste 25 Nordeste 0 -- -- 40
2019-03-21 10:00:00 10.8 20 Nordeste 32 Nordeste 0 -- -- 47
2019-03-21 09:00:00 8.4 27 Nordeste 34 Nordeste 0 -- -- 50
2019-03-21 08:00:00 6.7 23 Nordeste 33 Nordeste 0 -- -- 51
2019-03-21 07:00:00 5.6 15 Este 39 Nordeste 0 -- -- 55
2019-03-21 06:00:00 7.1 28 Nordeste 35 Nordeste 0 -- -- 46
2019-03-21 05:00:00 7.8 22 Nordeste 28 Nordeste 0 -- -- 45
2019-03-21 04:00:00 7.8 18 Nordeste 26 Nordeste 0 -- -- 47
2019-03-21 03:00:00 7.4 18 Nordeste 20 Nordeste 0 -- -- 47
2019-03-21 02:00:00 7.4 17 Nordeste 18 Nordeste 0 -- -- 48
2019-03-21 01:00:00 7.9 16 Nordeste 17 Nordeste 0 -- -- 46
2019-03-21 00:00:00 7.9 13 Nordeste 15 Nordeste 0 -- -- 46
2019-03-20 23:00:00 9 13 Nordeste 17 Nordeste 0 -- -- 42
2019-03-20 22:00:00 9.7 14 Nordeste 15 Nordeste 0 -- -- 39
2019-03-20 21:00:00 9.3 14 Nordeste 16 Nordeste 0 -- -- 42
2019-03-20 20:00:00 10 15 Nordeste 20 Nordeste 0 -- -- 43
2019-03-20 19:00:00 12.9 17 Nordeste 25 Este 0 -- -- 33
2019-03-20 18:00:00 14.7 14 Este 29 Este 0 -- -- 32
2019-03-20 17:00:00 14.9 19 Este 33 Nordeste 0 -- -- 33
2019-03-20 16:00:00 14.9 19 Este 37 Nordeste 0 -- -- 35
2019-03-20 15:00:00 14.2 26 Nordeste 52 Este 0 -- -- 37
2019-03-20 14:00:00 13.7 24 Nordeste 41 Nordeste 0 -- -- 39
2019-03-20 13:00:00 12.8 23 Nordeste 48 Nordeste 0 -- -- 40
2019-03-20 12:00:00 11.7 28 Nordeste 45 Nordeste 0 -- -- 40
2019-03-20 11:00:00 11 25 Este 47 Este 0 -- -- 43
2019-03-20 10:00:00 10.2 24 Este 36 Este 0 -- -- 44
2019-03-20 09:00:00 8.8 12 Este 21 Este 0 -- -- 51
2019-03-20 08:00:00 6.1 4 Este 11 Sudeste 0 -- -- 58
2019-03-20 07:00:00 5.6 4 Sudeste 11 Sudeste 0 -- -- 60
2019-03-20 06:00:00 5.7 8 Este 18 Nordeste 0 -- -- 61
2019-03-20 05:00:00 6.7 2 Nordeste 8 Este 0 -- -- 56
2019-03-20 04:00:00 7.3 5 Sudeste 8 Sudeste 0 -- -- 53
2019-03-20 03:00:00 7.6 5 Sudeste 17 Sudeste 0 -- -- 51
2019-03-20 02:00:00 8.9 12 Este 19 Este 0 -- -- 51
2019-03-20 01:00:00 8.7 12 Este 21 Nordeste 0 -- -- 52
2019-03-20 00:00:00 9.3 7 Sudeste 26 Nordeste 0 -- -- 51
2019-03-19 23:00:00 10.4 16 Nordeste 27 Nordeste 0 -- -- 47
2019-03-19 22:00:00 10.9 19 Nordeste 29 Nordeste 0 -- -- 47
2019-03-19 21:00:00 10.9 17 Nordeste 27 Este 0 -- -- 46
2019-03-19 20:00:00 12 10 Nordeste 16 Este 0 -- -- 43
2019-03-19 19:00:00 14.3 9 Nordeste 22 Nordeste 0 -- -- 38
2019-03-19 18:00:00 16 12 Norte 27 Nordeste 0 -- -- 35
2019-03-19 17:00:00 16.2 17 Nordeste 31 Nordeste 0 -- -- 34
2019-03-19 16:00:00 16.6 17 Nordeste 36 Nordeste 0 -- -- 36
2019-03-19 15:00:00 16 21 Este 34 Nordeste 0 -- -- 38
2019-03-19 14:00:00 15.5 25 Nordeste 38 Nordeste 0 -- -- 39
2019-03-19 13:00:00 15 20 Nordeste 34 Este 0 -- -- 39
2019-03-19 12:00:00 14.4 17 Este 33 Nordeste 0 -- -- 39
2019-03-19 11:00:00 12.8 19 Nordeste 33 Este 0 -- -- 43
2019-03-19 10:00:00 11.9 23 Nordeste 36 Este 0 -- -- 43
2019-03-19 09:00:00 10.3 15 Este 33 Nordeste 0 -- -- 46
2019-03-19 08:00:00 7.6 24 Nordeste 35 Nordeste 0 -- -- 50
2019-03-19 07:00:00 6.2 17 Nordeste 26 Nordeste 0 -- -- 54
2019-03-19 06:00:00 6 18 Nordeste 23 Nordeste 0 -- -- 58
2019-03-19 05:00:00 6.7 19 Nordeste 25 Este 0 -- -- 51
2019-03-19 04:00:00 7.6 21 Nordeste 24 Nordeste 0 -- -- 50
2019-03-19 03:00:00 8.8 18 Nordeste 23 Nordeste 0 -- -- 46
2019-03-19 02:00:00 8.9 20 Nordeste 23 Nordeste 0 -- -- 48
2019-03-19 01:00:00 8.4 12 Nordeste 15 Nordeste 0 -- -- 49
2019-03-19 00:00:00 8.7 9 Nordeste 13 Nordeste 0 -- -- 47